This is the latest recevied weather packets stored in our database for station/object AD8IZ-13. If no packets are shown the sender has not sent any weather packets the latest 10 day(s).
| Time | Temp. | Humidity | Pressure | Rain* | Wind** | Luminosity | Snow |
|---|---|---|---|---|---|---|---|
| 1777913719 | 20° C | 63% | 1007.9 hPa | 0 mm | - | 928 W/m² | - |
| 1777913120 | 20° C | 63% | 1007.9 hPa | 0 mm | - | 921 W/m² | - |
| 1777912518 | 19.44° C | 66% | 1008.1 hPa | 0 mm | - | 916 W/m² | - |
| 1777911919 | 19.44° C | 64% | 1008.2 hPa | 0 mm | - | 905 W/m² | - |
| 1777911319 | 19.44° C | 65% | 1008.2 hPa | 0 mm | - | 900 W/m² | - |
| 1777910719 | 18.89° C | 64% | 1008.5 hPa | 0 mm | - | 887 W/m² | - |
| 1777910120 | 18.89° C | 64% | 1008.5 hPa | 0 mm | - | 865 W/m² | - |
| 1777909520 | 18.89° C | 65% | 1008.5 hPa | 0 mm | - | 849 W/m² | - |
| 1777908920 | 17.78° C | 66% | 1008.7 hPa | 0 mm | - | 828 W/m² | - |
| 1777908317 | 17.78° C | 66% | 1008.8 hPa | 0 mm | - | 807 W/m² | - |
| 1777907717 | 17.78° C | 65% | 1008.9 hPa | 0 mm | - | 778 W/m² | - |
| 1777907117 | 16.67° C | 67% | 1009 hPa | 0 mm | - | 758 W/m² | - |
| 1777906520 | 16.67° C | 67% | 1009.1 hPa | 0 mm | - | 729 W/m² | - |
| 1777905921 | 16.67° C | 66% | 1009.1 hPa | 0 mm | - | 698 W/m² | - |
| 1777905318 | 16.11° C | 66% | 1009 hPa | 0 mm | - | 663 W/m² | - |
| 1777904718 | 16.11° C | 67% | 1009.1 hPa | 0 mm | - | 628 W/m² | - |
| 1777904118 | 15.56° C | 67% | 1009.4 hPa | 0 mm | - | 414 W/m² | - |
| 1777903518 | 15° C | 68% | 1009.6 hPa | 0 mm | - | 147 W/m² | - |
| 1777902919 | 14.44° C | 69% | 1009.9 hPa | 0 mm | - | 128 W/m² | - |
| 1777902319 | 14.44° C | 68% | 1009.9 hPa | 0 mm | - | 191 W/m² | - |
| 1777901719 | 14.44° C | 68% | 1009.9 hPa | 0 mm | - | 203 W/m² | - |
| 1777901120 | 13.89° C | 67% | 1010.1 hPa | 0 mm | - | 211 W/m² | - |
| 1777900519 | 13.89° C | 67% | 1009.9 hPa | 0 mm | - | 134 W/m² | - |
| 1777899921 | 13.33° C | 67% | 1010 hPa | 0 mm | - | 105 W/m² | - |
| 1777899317 | 13.33° C | 68% | 1010 hPa | 0 mm | - | 94 W/m² | - |
* Rain latest hour (hover to see other rain measurements)
** Current wind speed in m/s (hover to see current wind gust speed)